Time;durP1;ratioP1;P1;durP2;ratioP2;P2;SDS_P1;SDS_P2;PMS_P1;PMS_P2;Temp;Humidity;BMP_temperature;BMP_pressure;BME280_temperature;BME280_humidity;BME280_pressure;Samples;Min_cycle;Max_cycle;Signal;HPM_P1;HPM_P2
2023/02/25 00:01:24;;;;;;;5.90;4.88;;;4.30;99.90;;;;;;2603598;54;20764;31
2023/02/25 00:04:04;;;;;;;5.32;3.80;;;4.20;99.90;;;;;;2603721;54;20856;31
2023/02/25 00:06:40;;;;;;;8.50;4.65;;;4.20;99.90;;;;;;2603326;54;20033;31
2023/02/25 00:09:17;;;;;;;6.25;4.55;;;4.10;99.90;;;;;;2603688;54;19993;31
2023/02/25 00:11:53;;;;;;;8.20;5.03;;;4.10;99.90;;;;;;2603567;54;20054;31
2023/02/25 00:14:31;;;;;;;8.13;5.40;;;4.10;99.90;;;;;;2603577;54;20048;31
2023/02/25 00:17:11;;;;;;;6.93;5.37;;;4.00;99.90;;;;;;2621941;46;20038;31
2023/02/25 00:19:51;;;;;;;7.95;6.00;;;4.00;99.90;;;;;;2621639;46;20033;31
2023/02/25 00:22:29;;;;;;;7.80;5.40;;;4.00;99.90;;;;;;2603437;54;20035;31
2023/02/25 00:25:11;;;;;;;6.65;5.20;;;4.00;99.90;;;;;;2603153;54;20022;31
2023/02/25 00:27:52;;;;;;;7.25;4.80;;;4.00;99.90;;;;;;2603916;54;20117;31
2023/02/25 00:30:31;;;;;;;6.78;5.10;;;4.00;99.90;;;;;;2603168;54;21686;31
2023/02/25 00:33:09;;;;;;;;;;;3.90;99.90;;;;;;2602981;54;20030;31
2023/02/25 00:35:51;;;;;;;8.00;5.05;;;4.00;99.90;;;;;;2603652;54;20652;31
2023/02/25 00:38:29;;;;;;;7.32;5.00;;;3.90;99.90;;;;;;2603458;54;20964;31
2023/02/25 00:41:11;;;;;;;6.57;5.35;;;3.90;99.90;;;;;;2603535;54;20879;31
2023/02/25 00:43:50;;;;;;;7.85;5.90;;;3.90;99.90;;;;;;2603557;54;20050;31
2023/02/25 00:46:25;;;;;;;5.38;4.68;;;3.90;99.90;;;;;;2701864;39;20516;31
2023/02/25 00:49:00;;;;;;;10.70;7.30;;;3.90;99.90;;;;;;2603316;54;20837;31
2023/02/25 00:51:40;;;;;;;10.10;6.53;;;3.90;99.90;;;;;;2603550;54;20034;31
2023/02/25 00:54:19;;;;;;;9.52;5.78;;;3.90;99.90;;;;;;2603306;54;20816;31
2023/02/25 00:57:00;;;;;;;7.50;5.20;;;3.90;99.90;;;;;;2603418;54;20030;31
2023/02/25 00:59:38;;;;;;;5.53;4.38;;;3.90;99.90;;;;;;2621887;46;20101;31
2023/02/25 01:02:16;;;;;;;8.80;5.38;;;3.90;99.90;;;;;;2603499;54;20030;31
2023/02/25 01:04:51;;;;;;;7.18;5.22;;;3.90;99.90;;;;;;2602561;54;20931;31
2023/02/25 01:07:31;;;;;;;8.73;4.50;;;3.90;99.90;;;;;;2603451;54;20878;31
2023/02/25 01:10:07;;;;;;;7.85;5.15;;;3.90;99.90;;;;;;2611223;46;20030;31
2023/02/25 01:12:42;;;;;;;;;;;3.90;99.90;;;;;;2617515;46;20030;31
2023/02/25 01:15:20;;;;;;;7.28;5.65;;;3.90;99.90;;;;;;2602561;54;20682;31
2023/02/25 01:17:56;;;;;;;8.23;5.28;;;3.90;99.90;;;;;;2603216;54;20026;31
2023/02/25 01:20:35;;;;;;;7.05;5.07;;;3.90;99.90;;;;;;2602996;54;20101;31
2023/02/25 01:23:13;;;;;;;6.10;4.53;;;3.90;99.90;;;;;;2603282;54;20030;31
2023/02/25 01:25:53;;;;;;;7.25;5.35;;;4.00;99.90;;;;;;2602768;54;20778;31
2023/02/25 01:28:31;;;;;;;7.57;5.72;;;3.90;99.90;;;;;;2602501;54;20073;31
2023/02/25 01:31:07;;;;;;;7.90;5.80;;;3.90;99.90;;;;;;2603300;54;20027;31
2023/02/25 01:33:43;;;;;;;8.07;5.90;;;3.90;99.90;;;;;;2603436;54;20942;31
2023/02/25 01:36:19;;;;;;;10.23;6.00;;;3.90;99.90;;;;;;2603193;54;21139;31
2023/02/25 01:38:57;;;;;;;9.45;6.05;;;4.00;99.90;;;;;;2602547;54;20022;31
2023/02/25 01:41:33;;;;;;;7.13;5.40;;;4.00;99.90;;;;;;2617756;46;20795;31
2023/02/25 01:44:10;;;;;;;9.43;5.40;;;4.00;99.90;;;;;;2621668;46;20951;31
2023/02/25 01:46:46;;;;;;;8.65;5.63;;;4.00;99.90;;;;;;2603227;54;20102;31
2023/02/25 01:49:28;;;;;;;7.65;5.50;;;4.00;99.90;;;;;;2602680;54;20030;31
2023/02/25 01:52:05;;;;;;;9.23;6.20;;;4.00;99.90;;;;;;2617755;46;20057;31
2023/02/25 01:54:45;;;;;;;7.55;5.80;;;4.00;99.90;;;;;;2603138;54;20760;31
2023/02/25 01:57:22;;;;;;;9.45;5.55;;;4.00;99.90;;;;;;2621423;46;20981;31
2023/02/25 01:59:58;;;;;;;;;;;4.00;99.90;;;;;;2603133;54;20863;31
2023/02/25 02:02:37;;;;;;;8.15;6.65;;;4.00;99.90;;;;;;2621779;46;20777;31
2023/02/25 02:05:13;;;;;;;8.48;5.88;;;4.00;99.90;;;;;;2603216;54;20896;31
2023/02/25 02:07:50;;;;;;;7.50;5.63;;;4.00;99.90;;;;;;2603212;54;20030;31
2023/02/25 02:10:29;;;;;;;7.80;5.60;;;4.00;99.90;;;;;;2621788;46;20751;31
2023/02/25 02:13:05;;;;;;;9.50;6.50;;;4.00;99.90;;;;;;2719974;39;20513;31
2023/02/25 02:15:41;;;;;;;;;;;4.00;99.90;;;;;;2603315;54;20818;31
2023/02/25 02:18:18;;;;;;;11.60;6.38;;;4.00;99.90;;;;;;2621592;46;21525;31
2023/02/25 02:20:53;;;;;;;9.37;6.87;;;4.00;99.90;;;;;;2602917;54;20916;31
2023/02/25 02:23:42;;;;;;;9.35;6.55;;;4.00;99.90;;;;;;2621422;46;20116;31
2023/02/25 02:26:40;;;;;;;8.52;6.05;;;4.00;99.90;;;;;;2621714;46;20032;31
2023/02/25 02:29:46;;;;;;;12.05;6.78;;;4.00;99.90;;;;;;2603008;54;20026;31
2023/02/25 02:32:29;;;;;;;10.82;7.32;;;4.10;99.90;;;;;;2603036;54;20034;31
2023/02/25 02:35:12;;;;;;;10.27;6.78;;;4.10;99.90;;;;;;2603049;54;20030;31
2023/02/25 02:37:54;;;;;;;9.05;6.50;;;4.10;99.90;;;;;;2602896;54;20031;31
2023/02/25 02:40:40;;;;;;;11.93;8.60;;;4.00;99.90;;;;;;2603072;54;20038;31
2023/02/25 02:43:28;;;;;;;11.85;7.07;;;4.00;99.90;;;;;;2603012;54;21198;31
2023/02/25 02:46:07;;;;;;;10.32;6.88;;;4.10;99.90;;;;;;2603153;54;20872;31
2023/02/25 02:48:46;;;;;;;10.65;6.35;;;4.10;99.90;;;;;;2602918;54;20897;31
2023/02/25 02:51:24;;;;;;;11.48;6.75;;;4.10;99.90;;;;;;2602960;54;20031;31
2023/02/25 02:56:37;;;;;;;9.75;7.30;;;4.10;99.90;;;;;;2622503;46;20196;31
2023/02/25 02:59:17;;;;;;;12.50;7.10;;;4.20;99.90;;;;;;2612346;46;20026;31
2023/02/25 03:01:56;;;;;;;7.97;6.32;;;4.10;99.90;;;;;;2602989;54;20917;31
2023/02/25 03:04:39;;;;;;;10.30;7.47;;;4.10;99.90;;;;;;2603071;54;20033;31
2023/02/25 03:07:19;;;;;;;10.05;7.03;;;4.10;99.90;;;;;;2622181;46;20030;31
2023/02/25 03:09:59;;;;;;;9.50;6.88;;;4.10;99.90;;;;;;2603801;54;20030;31
2023/02/25 03:12:39;;;;;;;11.77;7.27;;;4.10;99.90;;;;;;2702483;39;20493;31
2023/02/25 03:15:16;;;;;;;9.50;6.80;;;4.10;99.90;;;;;;2602864;54;20066;31
2023/02/25 03:17:53;;;;;;;9.32;5.95;;;4.10;99.90;;;;;;2603857;54;20116;31
2023/02/25 03:20:39;;;;;;;9.45;6.60;;;4.00;99.90;;;;;;2603647;54;20027;31
2023/02/25 03:23:16;;;;;;;10.90;6.60;;;4.00;99.90;;;;;;2603849;54;20034;31
2023/02/25 03:25:54;;;;;;;8.35;6.20;;;3.90;99.90;;;;;;2603756;54;20767;31
2023/02/25 03:28:33;;;;;;;9.37;5.80;;;3.90;99.90;;;;;;2603695;54;20027;31
2023/02/25 03:31:12;;;;;;;9.25;5.75;;;3.90;99.90;;;;;;2603832;54;20345;31
2023/02/25 03:33:48;;;;;;;9.43;7.20;;;3.80;99.90;;;;;;2603648;54;20104;31
2023/02/25 03:36:28;;;;;;;9.60;5.82;;;3.80;99.90;;;;;;2603824;54;20026;31
2023/02/25 03:39:09;;;;;;;9.65;6.85;;;3.80;99.90;;;;;;2603919;54;20018;31
2023/02/25 03:44:22;;;;;;;6.35;4.95;;;3.70;99.90;;;;;;2603835;54;20026;31
2023/02/25 03:47:02;;;;;;;10.80;5.45;;;3.70;99.90;;;;;;2603714;54;20889;31
2023/02/25 03:49:41;;;;;;;7.87;4.97;;;3.70;99.90;;;;;;2602781;54;20875;31
2023/02/25 03:52:24;;;;;;;10.68;5.13;;;3.70;99.90;;;;;;2603513;54;20258;31
2023/02/25 03:55:08;;;;;;;8.02;4.53;;;3.70;99.90;;;;;;2622352;46;20030;31
2023/02/25 03:57:49;;;;;;;8.55;4.95;;;3.70;99.90;;;;;;2603782;54;20023;31
2023/02/25 04:00:26;;;;;;;8.80;4.50;;;3.60;99.90;;;;;;2603575;54;20955;31
2023/02/25 04:03:03;;;;;;;8.30;5.20;;;3.60;99.90;;;;;;2603551;54;20105;31
2023/02/25 04:05:39;;;;;;;6.85;4.15;;;3.60;99.90;;;;;;2603369;54;20037;31
2023/02/25 04:08:19;;;;;;;7.03;3.90;;;3.60;99.90;;;;;;2603553;54;20820;31
2023/02/25 04:10:54;;;;;;;6.43;3.88;;;3.60;99.90;;;;;;2602725;54;20246;31
2023/02/25 04:13:34;;;;;;;7.15;4.20;;;3.60;99.90;;;;;;2602986;54;20884;31
2023/02/25 04:16:10;;;;;;;7.90;4.30;;;3.60;99.90;;;;;;2603713;54;20022;31
2023/02/25 04:18:48;;;;;;;5.47;3.00;;;3.70;99.90;;;;;;2603533;54;20052;31
2023/02/25 04:21:28;;;;;;;9.20;4.45;;;3.60;99.90;;;;;;2602657;54;20019;31
2023/02/25 04:24:10;;;;;;;8.57;4.30;;;3.70;99.90;;;;;;2603628;54;20120;31
2023/02/25 04:26:46;;;;;;;6.95;3.90;;;3.70;99.90;;;;;;2603546;54;20838;31
2023/02/25 04:29:25;;;;;;;9.50;3.47;;;3.70;99.90;;;;;;2621939;46;20585;31
2023/02/25 04:32:03;;;;;;;6.95;3.55;;;3.70;99.90;;;;;;2621985;46;20037;31
2023/02/25 04:34:41;;;;;;;8.17;3.47;;;3.70;99.90;;;;;;2603427;54;20037;31
2023/02/25 04:37:21;;;;;;;10.05;4.25;;;3.70;99.90;;;;;;2603388;54;20026;31
2023/02/25 04:40:10;;;;;;;7.37;3.40;;;3.70;99.90;;;;;;2602860;54;20026;31
2023/02/25 04:42:44;;;;;;;9.30;4.30;;;3.70;99.90;;;;;;2602930;54;20994;31
2023/02/25 04:45:24;;;;;;;9.77;3.55;;;3.80;99.90;;;;;;2603480;54;20790;31
2023/02/25 04:48:01;;;;;;;11.55;3.83;;;3.80;99.90;;;;;;2701784;39;21707;31
2023/02/25 04:50:37;;;;;;;8.75;3.95;;;3.80;99.90;;;;;;2603425;54;20158;31
2023/02/25 04:53:14;;;;;;;6.40;3.15;;;3.80;99.90;;;;;;2603318;54;20027;31
2023/02/25 04:55:55;;;;;;;6.32;3.25;;;3.80;99.90;;;;;;2603632;54;20928;31
2023/02/25 04:58:37;;;;;;;5.95;3.00;;;3.80;99.90;;;;;;2621717;46;20030;31
2023/02/25 05:01:23;;;;;;;8.77;3.03;;;3.80;99.90;;;;;;2603372;54;20923;31
2023/02/25 05:06:38;;;;;;;7.10;2.90;;;3.90;99.90;;;;;;2603380;54;20013;31
2023/02/25 05:09:15;;;;;;;7.80;2.50;;;3.80;99.90;;;;;;2765018;31;20026;31
2023/02/25 05:11:58;;;;;;;7.28;2.88;;;3.80;99.90;;;;;;2621877;46;20027;31
2023/02/25 05:14:36;;;;;;;7.78;3.00;;;3.80;99.90;;;;;;2603526;54;20632;31
2023/02/25 05:17:10;;;;;;;7.50;2.55;;;3.80;99.90;;;;;;2603227;54;20027;31
2023/02/25 05:19:46;;;;;;;8.60;2.72;;;3.80;99.90;;;;;;2603470;54;20037;31
2023/02/25 05:22:21;;;;;;;6.25;3.00;;;3.80;99.90;;;;;;2621631;46;20955;31
2023/02/25 05:24:57;;;;;;;4.63;2.88;;;3.90;99.90;;;;;;2603408;54;20900;31
2023/02/25 05:27:37;;;;;;;8.65;3.60;;;3.80;99.90;;;;;;2603332;54;20030;31
2023/02/25 05:30:18;;;;;;;7.47;2.70;;;3.70;99.90;;;;;;2622208;46;20034;31
2023/02/25 05:32:54;;;;;;;6.47;2.92;;;3.80;99.90;;;;;;2603257;54;20053;31
2023/02/25 05:35:36;;;;;;;7.63;3.22;;;3.70;99.90;;;;;;2603185;54;20866;31
2023/02/25 05:38:13;;;;;;;8.82;3.60;;;3.70;99.90;;;;;;2603235;54;20090;31
2023/02/25 05:40:49;;;;;;;10.55;3.38;;;3.70;99.90;;;;;;2603440;54;20035;31
2023/02/25 05:43:28;;;;;;;;;;;3.70;99.90;;;;;;2603614;54;20053;31
2023/02/25 05:46:10;;;;;;;8.97;3.30;;;3.70;99.90;;;;;;2603163;54;19957;31
2023/02/25 05:48:49;;;;;;;7.30;3.10;;;3.70;99.90;;;;;;2602892;54;20806;31
2023/02/25 05:51:29;;;;;;;8.63;3.47;;;3.60;99.90;;;;;;2603178;54;20023;31
2023/02/25 05:54:05;;;;;;;9.32;3.35;;;3.60;99.90;;;;;;2603239;54;20030;31
2023/02/25 05:56:41;;;;;;;3.88;2.40;;;3.60;99.90;;;;;;2621805;46;20030;31
2023/02/25 05:59:22;;;;;;;7.65;2.70;;;3.50;99.90;;;;;;2603389;54;20812;31
2023/02/25 06:01:56;;;;;;;7.70;3.45;;;3.50;99.90;;;;;;2603420;54;20116;31
2023/02/25 06:04:34;;;;;;;9.07;3.22;;;3.50;99.90;;;;;;2603355;54;20053;31
2023/02/25 06:07:12;;;;;;;7.80;3.40;;;3.50;99.90;;;;;;2613101;46;20026;31
2023/02/25 06:09:49;;;;;;;7.10;3.30;;;3.50;99.90;;;;;;2603167;54;20027;31
2023/02/25 06:12:26;;;;;;;6.90;2.88;;;3.50;99.90;;;;;;2603198;54;20027;31
2023/02/25 06:15:07;;;;;;;4.95;2.35;;;3.50;99.90;;;;;;2603100;54;20026;31
2023/02/25 06:17:45;;;;;;;8.20;2.50;;;3.50;99.90;;;;;;2603271;54;20756;31
2023/02/25 06:20:19;;;;;;;5.35;2.60;;;3.50;99.90;;;;;;2603186;54;20137;31
2023/02/25 06:22:56;;;;;;;;;;;3.50;99.90;;;;;;2621573;46;20934;31
2023/02/25 06:25:33;;;;;;;4.20;3.00;;;3.50;99.90;;;;;;2603107;54;19969;31
2023/02/25 06:28:10;;;;;;;6.20;2.85;;;3.50;99.90;;;;;;2602911;54;20065;31
2023/02/25 06:30:50;;;;;;;4.80;2.55;;;3.50;99.90;;;;;;2602239;54;20048;31
2023/02/25 06:33:26;;;;;;;5.68;2.88;;;3.40;99.90;;;;;;2619414;46;20039;31
2023/02/25 06:36:03;;;;;;;5.13;2.70;;;3.50;99.90;;;;;;2603188;54;20042;31
2023/02/25 06:38:41;;;;;;;4.40;2.85;;;3.50;99.90;;;;;;2602944;54;20061;31
2023/02/25 06:41:20;;;;;;;4.47;3.03;;;3.50;99.90;;;;;;2602198;54;20030;31
2023/02/25 06:43:56;;;;;;;6.63;3.13;;;3.50;99.90;;;;;;2603281;54;20869;31
2023/02/25 06:46:35;;;;;;;6.38;3.83;;;3.40;99.90;;;;;;2621234;47;20755;31
2023/02/25 06:49:13;;;;;;;5.00;3.58;;;3.40;99.90;;;;;;2602993;54;20040;31
2023/02/25 06:51:49;;;;;;;4.55;3.47;;;3.50;99.90;;;;;;2603118;54;20909;31
2023/02/25 06:54:27;;;;;;;6.90;3.40;;;3.40;99.90;;;;;;2603142;54;20027;31
2023/02/25 06:57:04;;;;;;;3.87;2.63;;;3.40;99.90;;;;;;2603092;54;20035;31
2023/02/25 06:59:41;;;;;;;3.78;2.53;;;3.40;99.90;;;;;;2602866;54;20864;31
2023/02/25 07:02:20;;;;;;;4.82;2.97;;;3.40;99.90;;;;;;2602075;54;20069;31
2023/02/25 07:04:55;;;;;;;3.00;2.15;;;3.30;99.90;;;;;;2602913;54;20108;31
2023/02/25 07:07:30;;;;;;;3.95;2.60;;;3.30;99.90;;;;;;2602757;54;20038;31
2023/02/25 07:10:10;;;;;;;5.88;2.92;;;3.40;99.90;;;;;;2621059;47;20927;31
2023/02/25 07:12:48;;;;;;;5.07;2.72;;;3.40;99.90;;;;;;2602238;54;20058;31
2023/02/25 07:15:26;;;;;;;5.57;3.08;;;3.40;99.90;;;;;;2614472;47;20656;31
2023/02/25 07:18:04;;;;;;;4.60;2.85;;;3.40;99.90;;;;;;2603035;54;20846;31
2023/02/25 07:20:43;;;;;;;4.67;3.07;;;3.50;99.90;;;;;;2602773;54;20855;31
2023/02/25 07:23:22;;;;;;;5.10;3.55;;;3.50;99.90;;;;;;2602899;54;20058;31
2023/02/25 07:26:00;;;;;;;4.78;4.10;;;3.60;99.90;;;;;;2602559;54;20941;31
2023/02/25 07:28:37;;;;;;;6.25;3.95;;;3.50;99.90;;;;;;2602974;54;21277;31
2023/02/25 07:31:17;;;;;;;6.85;4.50;;;3.60;99.90;;;;;;2602107;54;20034;31
2023/02/25 07:33:58;;;;;;;3.83;3.42;;;3.60;99.90;;;;;;2602995;54;20026;31
2023/02/25 07:36:36;;;;;;;5.35;3.78;;;3.60;99.90;;;;;;2602936;54;20031;31
2023/02/25 07:39:16;;;;;;;5.85;3.10;;;3.60;99.90;;;;;;2621611;47;20089;31
2023/02/25 07:41:51;;;;;;;3.80;2.50;;;3.60;99.90;;;;;;2621860;46;20030;31
2023/02/25 07:44:30;;;;;;;4.45;3.00;;;3.60;99.90;;;;;;2603616;54;21147;31
2023/02/25 07:47:05;;;;;;;3.47;2.80;;;3.60;99.90;;;;;;2603646;54;20076;31
2023/02/25 07:49:45;;;;;;;4.47;2.75;;;3.60;99.90;;;;;;2622229;46;20041;31
2023/02/25 07:52:21;;;;;;;4.45;2.95;;;3.70;99.90;;;;;;2622055;46;20901;31
2023/02/25 07:54:57;;;;;;;5.85;3.40;;;3.60;99.90;;;;;;2603521;54;20876;31
2023/02/25 07:57:34;;;;;;;3.78;2.97;;;3.60;99.90;;;;;;2603671;54;20053;31
2023/02/25 08:00:14;;;;;;;5.07;3.22;;;3.60;99.90;;;;;;2603842;54;20031;31
2023/02/25 08:02:55;;;;;;;5.83;3.20;;;3.70;99.90;;;;;;2603377;54;20053;31
2023/02/25 08:05:35;;;;;;;4.10;3.10;;;3.70;99.90;;;;;;2603486;54;19989;31
2023/02/25 08:08:13;;;;;;;5.47;2.80;;;3.80;99.90;;;;;;2621883;46;19950;31
2023/02/25 08:10:49;;;;;;;4.10;2.60;;;3.80;99.90;;;;;;2773421;31;21753;31
2023/02/25 08:13:25;;;;;;;4.57;3.22;;;3.80;99.90;;;;;;2621750;46;20027;31
2023/02/25 08:16:01;;;;;;;2.85;1.95;;;3.80;99.90;;;;;;2602982;54;19934;31
2023/02/25 08:18:36;;;;;;;3.28;1.92;;;3.80;99.90;;;;;;2603465;54;20511;31
2023/02/25 08:21:20;;;;;;;3.85;2.15;;;3.80;99.90;;;;;;2622059;46;20033;31
2023/02/25 08:23:58;;;;;;;3.72;2.42;;;3.80;99.90;;;;;;2603624;54;20930;31
2023/02/25 08:26:35;;;;;;;4.45;2.90;;;3.70;99.90;;;;;;2603567;54;20046;31
2023/02/25 08:31:45;;;;;;;4.13;3.13;;;3.70;99.90;;;;;;2603362;54;20038;31
2023/02/25 08:34:21;;;;;;;4.53;3.37;;;3.70;99.90;;;;;;2603396;54;20864;31
2023/02/25 08:37:01;;;;;;;3.27;2.97;;;3.70;99.90;;;;;;2603516;54;20948;31
2023/02/25 08:39:41;;;;;;;4.47;3.40;;;3.70;99.90;;;;;;2621643;46;20026;31
2023/02/25 08:42:19;;;;;;;4.97;4.50;;;3.70;99.90;;;;;;2622032;46;19934;31
2023/02/25 08:44:56;;;;;;;6.35;4.50;;;3.70;99.90;;;;;;2603424;54;20859;31
2023/02/25 08:47:34;;;;;;;4.72;3.72;;;3.70;99.90;;;;;;2764823;31;20096;31
2023/02/25 08:50:19;;;;;;;7.95;4.15;;;3.70;99.90;;;;;;2621807;46;20038;31
2023/02/25 08:53:03;;;;;;;3.97;2.70;;;3.70;99.90;;;;;;2603553;54;20064;31
2023/02/25 08:58:51;;;;;;;6.25;4.80;;;3.70;99.90;;;;;;2602722;54;20081;31
2023/02/25 09:04:55;;;;;;;4.18;2.90;;;3.70;99.90;;;;;;2602481;54;20053;31
2023/02/25 09:07:35;;;;;;;4.80;2.93;;;3.70;99.90;;;;;;2603163;54;20026;31
2023/02/25 09:10:24;;;;;;;2.65;2.10;;;3.70;99.90;;;;;;2621816;46;20246;31
2023/02/25 09:12:59;;;;;;;3.33;2.38;;;3.70;99.90;;;;;;2603346;54;20053;31
2023/02/25 09:15:40;;;;;;;;;;;3.70;99.90;;;;;;2603676;54;20875;31
2023/02/25 09:18:16;;;;;;;3.10;2.55;;;3.70;99.90;;;;;;2791749;31;21548;31
2023/02/25 09:20:57;;;;;;;2.47;2.28;;;3.70;99.90;;;;;;2603050;54;20038;31
2023/02/25 09:23:41;;;;;;;4.05;2.60;;;3.70;99.90;;;;;;2603296;54;21679;31
2023/02/25 09:26:31;;;;;;;4.53;2.85;;;3.60;99.90;;;;;;2603244;54;20034;31
2023/02/25 09:31:51;;;;;;;2.95;2.63;;;3.60;99.90;;;;;;2603279;54;20771;31
2023/02/25 09:34:32;;;;;;;5.43;3.17;;;3.70;99.90;;;;;;2621388;46;20026;31
2023/02/25 09:37:12;;;;;;;3.90;2.60;;;3.70;99.90;;;;;;2603320;54;20037;31
2023/02/25 09:39:47;;;;;;;7.63;4.28;;;3.70;99.90;;;;;;2603028;54;20897;31
2023/02/25 09:45:21;;;;;;;5.28;3.53;;;3.70;99.90;;;;;;2602618;54;20878;31
2023/02/25 09:50:57;;;;;;;3.92;3.03;;;3.70;99.90;;;;;;2602200;54;20246;31
2023/02/25 09:53:46;;;;;;;3.20;2.80;;;3.70;99.90;;;;;;2602282;54;22492;31
2023/02/25 09:56:23;;;;;;;2.60;2.20;;;3.80;99.90;;;;;;2602477;54;20297;31
2023/02/25 09:59:14;;;;;;;2.25;1.50;;;3.80;99.90;;;;;;2603051;54;19934;31
2023/02/25 10:01:57;;;;;;;3.33;1.98;;;3.80;99.90;;;;;;2603131;54;20085;31
2023/02/25 10:04:37;;;;;;;3.28;1.65;;;3.80;99.90;;;;;;2602494;54;20894;31
2023/02/25 10:07:19;;;;;;;2.40;1.80;;;3.80;99.90;;;;;;2602472;54;20924;31
2023/02/25 10:15:59;;;;;;;3.90;2.50;;;4.00;99.90;;;;;;2602339;54;20892;31
2023/02/25 10:22:05;;;;;;;2.60;1.50;;;4.10;99.90;;;;;;2610571;54;20867;31
2023/02/25 10:27:48;;;;;;;3.50;2.23;;;4.10;99.90;;;;;;2602891;54;20027;31
2023/02/25 10:33:04;;;;;;;3.15;2.15;;;4.30;99.90;;;;;;2602617;54;20892;31
2023/02/25 10:35:41;;;;;;;2.05;1.52;;;4.50;99.90;;;;;;2602549;54;20027;31
2023/02/25 10:38:24;;;;;;;1.70;1.15;;;4.60;99.90;;;;;;2621743;46;20780;31
2023/02/25 10:41:02;;;;;;;1.00;0.80;;;4.70;99.90;;;;;;2621837;46;20046;31
2023/02/25 10:43:39;;;;;;;2.00;1.10;;;4.70;99.90;;;;;;2621261;47;20865;31
2023/02/25 10:46:27;;;;;;;1.55;0.80;;;4.90;99.90;;;;;;2602199;54;20088;31
2023/02/25 10:49:20;;;;;;;1.05;0.60;;;4.80;99.90;;;;;;2603168;54;20026;31
2023/02/25 10:57:59;;;;;;;1.70;0.60;;;4.60;99.90;;;;;;2603135;54;20878;31
2023/02/25 11:00:36;;;;;;;1.20;0.60;;;4.50;99.90;;;;;;2602923;54;20030;31
2023/02/25 11:03:17;;;;;;;1.08;0.47;;;4.40;99.90;;;;;;2602839;54;20026;31
2023/02/25 11:05:55;;;;;;;2.22;0.95;;;4.30;99.90;;;;;;2603133;54;20874;31
2023/02/25 11:08:34;;;;;;;3.55;0.57;;;4.20;99.90;;;;;;2621385;47;20030;31
2023/02/25 11:11:10;;;;;;;1.55;0.93;;;4.10;99.90;;;;;;2621431;47;20026;31
2023/02/25 11:14:02;;;;;;;1.43;0.90;;;3.90;99.90;;;;;;2602879;54;20864;31
2023/02/25 11:16:38;;;;;;;0.60;0.30;;;3.90;99.90;;;;;;2622256;46;20670;31
2023/02/25 11:19:19;;;;;;;0.52;0.32;;;3.80;99.90;;;;;;2622158;46;20037;31
2023/02/25 11:21:57;;;;;;;0.80;0.57;;;3.70;99.90;;;;;;2603724;54;20639;31
2023/02/25 11:24:39;;;;;;;0.68;0.40;;;3.70;99.90;;;;;;2602762;54;21704;31
2023/02/25 11:27:35;;;;;;;0.40;0.30;;;3.70;99.90;;;;;;2612340;46;20855;31
2023/02/25 11:30:24;;;;;;;1.73;0.60;;;3.80;99.90;;;;;;2603779;54;20297;31
2023/02/25 11:33:11;;;;;;;1.00;0.30;;;3.70;99.90;;;;;;2773837;31;21938;31
2023/02/25 11:35:48;;;;;;;;;;;3.90;99.90;;;;;;2702466;39;20514;31
2023/02/25 11:38:27;;;;;;;0.50;0.40;;;4.00;99.90;;;;;;2603778;54;19941;31
2023/02/25 11:41:05;;;;;;;2.55;0.43;;;4.10;99.90;;;;;;2715726;39;20111;31
2023/02/25 11:43:46;;;;;;;1.10;0.50;;;4.10;99.90;;;;;;2603709;54;20093;31
2023/02/25 11:46:31;;;;;;;0.57;0.30;;;4.10;99.90;;;;;;2603807;54;20030;31
2023/02/25 11:49:14;;;;;;;0.95;0.32;;;4.00;99.90;;;;;;2603528;54;20030;31
2023/02/25 11:51:58;;;;;;;0.63;0.40;;;3.90;99.90;;;;;;2603543;54;20038;31
2023/02/25 11:54:42;;;;;;;1.05;0.50;;;3.90;99.90;;;;;;2603650;54;20800;31
2023/02/25 11:57:20;;;;;;;0.80;0.50;;;3.90;99.90;;;;;;2603716;54;20844;31
2023/02/25 12:00:00;;;;;;;1.15;0.50;;;3.90;99.90;;;;;;2603486;54;20167;31
2023/02/25 12:02:54;;;;;;;1.10;0.60;;;3.90;99.90;;;;;;2603219;54;20802;31
2023/02/25 12:05:43;;;;;;;0.80;0.50;;;4.00;99.90;;;;;;2603920;54;20816;31
2023/02/25 12:08:19;;;;;;;0.95;0.50;;;4.00;99.90;;;;;;2773520;31;21412;31
2023/02/25 12:11:17;;;;;;;0.88;0.40;;;4.10;99.90;;;;;;2621232;46;22439;31
2023/02/25 12:14:23;;;;;;;1.20;0.50;;;4.10;99.90;;;;;;2603545;54;20031;31
2023/02/25 12:17:26;;;;;;;1.40;0.40;;;4.00;99.90;;;;;;2603262;54;20038;31
2023/02/25 12:20:43;;;;;;;1.35;0.60;;;4.00;99.90;;;;;;2603542;54;20085;31
2023/02/25 12:23:41;;;;;;;0.90;0.60;;;4.00;99.90;;;;;;2603516;54;20844;31
2023/02/25 12:26:15;;;;;;;1.35;0.50;;;3.90;99.90;;;;;;2622055;46;20847;31
2023/02/25 12:29:06;;;;;;;0.57;0.23;;;3.90;99.90;;;;;;2621673;46;20026;31
2023/02/25 12:32:10;;;;;;;1.85;0.80;;;3.90;99.90;;;;;;2603197;54;20874;31
2023/02/25 12:35:22;;;;;;;0.93;0.40;;;3.90;99.90;;;;;;2603462;54;20046;31
2023/02/25 12:38:18;;;;;;;2.55;0.70;;;3.90;99.90;;;;;;2621568;46;20771;31
2023/02/25 12:41:15;;;;;;;1.27;0.60;;;3.80;99.90;;;;;;2603549;54;20085;31
2023/02/25 12:43:55;;;;;;;1.10;0.60;;;3.80;99.90;;;;;;2701831;39;21704;31
2023/02/25 12:47:00;;;;;;;1.00;0.55;;;3.80;99.90;;;;;;2603426;54;20893;31
2023/02/25 12:49:53;;;;;;;1.42;0.60;;;3.80;99.90;;;;;;2603456;54;20031;31
2023/02/25 12:52:38;;;;;;;2.00;0.68;;;3.70;99.90;;;;;;2773443;31;20567;31
2023/02/25 12:55:55;;;;;;;1.50;0.50;;;3.60;99.90;;;;;;2603370;54;20094;31
2023/02/25 12:58:37;;;;;;;2.15;0.80;;;3.50;99.90;;;;;;2621388;46;20764;31
2023/02/25 13:01:26;;;;;;;0.95;0.50;;;3.50;99.90;;;;;;2702225;39;21050;31
2023/02/25 13:04:25;;;;;;;1.00;0.50;;;3.40;99.90;;;;;;2603353;54;21325;31
2023/02/25 13:07:13;;;;;;;0.82;0.55;;;3.50;99.90;;;;;;2603511;54;20033;31
2023/02/25 13:12:31;;;;;;;1.13;0.60;;;3.40;99.90;;;;;;2603316;54;20830;31
2023/02/25 13:15:11;;;;;;;1.37;0.67;;;3.40;99.90;;;;;;2720288;39;20473;31
2023/02/25 13:18:05;;;;;;;1.00;0.57;;;3.30;99.90;;;;;;2606069;46;20867;31
2023/02/25 13:21:19;;;;;;;1.98;0.80;;;3.30;99.90;;;;;;2603202;54;20113;31
2023/02/25 13:24:06;;;;;;;1.38;0.93;;;3.30;99.90;;;;;;2603490;54;20860;31
2023/02/25 13:26:49;;;;;;;1.60;0.95;;;3.30;99.90;;;;;;2621790;46;20037;31
2023/02/25 13:29:34;;;;;;;2.17;0.98;;;3.20;99.90;;;;;;2619479;46;21756;31
2023/02/25 13:32:26;;;;;;;1.88;1.10;;;3.20;99.90;;;;;;2621492;46;20022;31
2023/02/25 13:35:13;;;;;;;1.15;0.90;;;3.10;99.90;;;;;;2603193;54;20859;31
2023/02/25 13:38:00;;;;;;;1.77;0.93;;;3.10;99.90;;;;;;2603066;54;20037;31
2023/02/25 13:41:04;;;;;;;1.45;1.00;;;3.10;99.90;;;;;;2621801;46;20026;31
2023/02/25 13:44:07;;;;;;;2.15;1.23;;;3.10;99.90;;;;;;2603406;54;20046;31
2023/02/25 13:49:58;;;;;;;1.90;1.02;;;3.20;99.90;;;;;;2602618;54;20076;31
2023/02/25 13:52:46;;;;;;;2.28;1.15;;;3.20;99.90;;;;;;2603181;54;20819;31
2023/02/25 13:55:47;;;;;;;1.95;1.45;;;3.20;99.90;;;;;;2603347;54;20026;31
2023/02/25 13:58:57;;;;;;;2.70;1.70;;;3.30;99.90;;;;;;2621374;46;20870;31
2023/02/25 14:01:45;;;;;;;1.83;1.30;;;3.30;99.90;;;;;;2701515;39;21618;31
2023/02/25 14:04:19;;;;;;;2.05;1.35;;;3.30;99.90;;;;;;2603230;54;20035;31
2023/02/25 14:07:07;;;;;;;2.13;0.98;;;3.30;99.90;;;;;;2603307;54;20034;31
2023/02/25 14:09:48;;;;;;;2.65;1.20;;;3.20;99.90;;;;;;2621642;46;20026;31
2023/02/25 14:15:51;;;;;;;2.72;1.25;;;3.30;99.90;;;;;;2603550;54;21209;31
2023/02/25 14:18:35;;;;;;;2.20;1.63;;;3.20;99.90;;;;;;2621330;46;20030;31
2023/02/25 14:21:33;;;;;;;1.58;1.00;;;3.30;99.90;;;;;;2603063;54;20584;31
2023/02/25 14:24:09;;;;;;;1.40;1.10;;;3.20;99.90;;;;;;2603187;54;20529;31
2023/02/25 14:26:48;;;;;;;2.50;1.50;;;3.20;99.90;;;;;;2603089;54;21301;31
2023/02/25 14:29:27;;;;;;;2.83;1.43;;;3.10;99.90;;;;;;2602285;54;20912;31
2023/02/25 14:32:23;;;;;;;1.30;1.20;;;3.10;99.90;;;;;;2603087;54;20296;31
2023/02/25 14:35:16;;;;;;;2.40;1.25;;;3.20;99.90;;;;;;2621377;46;20235;31
2023/02/25 14:37:57;;;;;;;2.47;1.23;;;3.20;99.90;;;;;;2602214;54;20902;31
2023/02/25 14:40:33;;;;;;;2.55;1.35;;;3.10;99.90;;;;;;2620844;46;20862;31
2023/02/25 14:43:33;;;;;;;1.80;1.33;;;3.20;99.90;;;;;;2602290;54;20026;31
2023/02/25 14:46:20;;;;;;;1.55;1.00;;;3.20;99.90;;;;;;2603028;54;20761;31
2023/02/25 14:49:01;;;;;;;1.15;0.90;;;3.20;99.90;;;;;;2621557;47;20076;31
2023/02/25 14:52:08;;;;;;;1.92;1.02;;;3.10;99.90;;;;;;2603528;54;20631;31
2023/02/25 14:54:42;;;;;;;1.70;1.00;;;3.10;99.90;;;;;;2603726;54;20023;31
2023/02/25 14:58:00;;;;;;;2.08;1.02;;;3.00;99.90;;;;;;2603906;54;20953;31
2023/02/25 15:01:26;;;;;;;2.17;1.17;;;3.00;99.90;;;;;;2603747;54;20018;31
2023/02/25 15:04:34;;;;;;;2.40;1.47;;;3.00;99.90;;;;;;2603551;54;20026;31
2023/02/25 15:07:24;;;;;;;3.70;1.17;;;2.90;99.90;;;;;;2622212;46;20080;31
2023/02/25 15:10:18;;;;;;;3.03;1.60;;;3.00;99.90;;;;;;2622209;46;20037;31
2023/02/25 15:13:40;;;;;;;6.38;2.83;;;3.10;99.90;;;;;;2702564;39;20485;31
2023/02/25 15:16:40;;;;;;;3.15;1.20;;;3.00;99.90;;;;;;2603649;54;20823;31
2023/02/25 15:19:49;;;;;;;2.50;1.23;;;3.00;99.90;;;;;;2603475;54;20042;31
2023/02/25 15:22:36;;;;;;;1.47;0.90;;;2.90;99.90;;;;;;2603518;54;20900;31
2023/02/25 15:25:18;;;;;;;1.92;1.15;;;2.90;99.90;;;;;;2603923;54;20242;31